메인 페이지
METAR-TAF:

METAR-TAF

공항 :

Enid, 오클라호마, 미국

위도: 36-22-45N, 경도: 097-47-28W, 고도: 356m

현재 날씨관측

예보는 26분 전, 05:15시(UTC)에 발표되었습니다.
동북동8kt
온도 20°C
습도 100%
기압 1010 hPa
고도 8000ft 상공 흐림

METAR: KWDG 250515Z AUTO 06008KT OVC080 20/20 A2982 RMK AO2 LTG DSNT W THRU N PWINO

시각: 00:41 (05:41 UTC)


TAF: 누락

4,000개 이상의 공항 관측 자료 및 예보 (METAR 및 TAF 보고).

지도상에서 검색 가능한 기상관측소가 노란 점과 빨간 점으로 표시되어 있습니다.

기상관측소 명을 보려면 표시 위로 마우스를 이동하세요.

날씨 관측과 예보를 보려면 클릭하세요.

지도 변경 : 확대하려면 엑스 표시가 있는 녹색 버튼, 축소하려면 빼기 표시가 있는 녹색 버튼, 다음 페이지의 지도를 보려면 녹색 화살표를 클릭하세요.


METAR-TAF: